Map

Track Data

SID SEASON NUMBER BASIN SUBBASIN NAME ISO_TIME NATURE LAT LON WMO_WIND WMO_PRES WMO_AGENCY TRACK_TYPE DIST2LAND LANDFALL IFLAG USA_AGENCY USA_ATCF_ID USA_LAT USA_LON USA_RECORD USA_STATUS USA_WIND USA_PRES USA_SSHS USA_R34_NE USA_R34_SE USA_R34_SW USA_R34_NW USA_R50_NE USA_R50_SE USA_R50_SW USA_R50_NW USA_R64_NE USA_R64_SE USA_R64_SW USA_R64_NW USA_POCI USA_ROCI USA_RMW USA_EYE TOKYO_LAT TOKYO_LON TOKYO_GRADE TOKYO_WIND TOKYO_PRES TOKYO_R50_DIR TOKYO_R50_LONG TOKYO_R50_SHORT TOKYO_R30_DIR TOKYO_R30_LONG TOKYO_R30_SHORT TOKYO_LAND CMA_LAT CMA_LON CMA_CAT CMA_WIND CMA_PRES HKO_LAT HKO_LON HKO_CAT HKO_WIND HKO_PRES NEWDELHI_LAT NEWDELHI_LON NEWDELHI_GRADE NEWDELHI_WIND NEWDELHI_PRES NEWDELHI_CI NEWDELHI_DP NEWDELHI_POCI REUNION_LAT REUNION_LON REUNION_TYPE REUNION_WIND REUNION_PRES REUNION_TNUM REUNION_CI REUNION_RMW REUNION_R34_NE REUNION_R34_SE REUNION_R34_SW REUNION_R34_NW REUNION_R50_NE REUNION_R50_SE REUNION_R50_SW REUNION_R50_NW REUNION_R64_NE REUNION_R64_SE REUNION_R64_SW REUNION_R64_NW BOM_LAT BOM_LON BOM_TYPE BOM_WIND BOM_PRES BOM_TNUM BOM_CI BOM_RMW BOM_R34_NE BOM_R34_SE BOM_R34_SW BOM_R34_NW BOM_R50_NE BOM_R50_SE BOM_R50_SW BOM_R50_NW BOM_R64_NE BOM_R64_SE BOM_R64_SW BOM_R64_NW BOM_ROCI BOM_POCI BOM_EYE BOM_POS_METHOD BOM_PRES_METHOD NADI_LAT NADI_LON NADI_CAT NADI_WIND NADI_PRES WELLINGTON_LAT WELLINGTON_LON WELLINGTON_WIND WELLINGTON_PRES DS824_LAT DS824_LON DS824_STAGE DS824_WIND DS824_PRES TD9636_LAT TD9636_LON TD9636_STAGE TD9636_WIND TD9636_PRES TD9635_LAT TD9635_LON TD9635_WIND TD9635_PRES TD9635_ROCI NEUMANN_LAT NEUMANN_LON NEUMANN_CLASS NEUMANN_WIND NEUMANN_PRES MLC_LAT MLC_LON MLC_CLASS MLC_WIND MLC_PRES USA_GUST BOM_GUST BOM_GUST_PER REUNION_GUST REUNION_GUST_PER USA_SEAHGT USA_SEARAD_NE USA_SEARAD_SE USA_SEARAD_SW USA_SEARAD_NW STORM_SPEED STORM_DIR
1960210N28275 1960 41 NA GM BRENDA 1960-07-27 18:00:00 TS 27.7000 -85.1000 30 hurdat_atl main 217 217 O_____________ hurdat_atl AL031960 27.7000 -85.1000 TD 30 -1 6 232
1960210N28275 1960 41 NA GM BRENDA 1960-07-27 21:00:00 TS 27.5251 -85.3503 main 245 245 P_____________ AL031960 27.5251 -85.3503 TD 30 -1 5 230
1960210N28275 1960 41 NA GM BRENDA 1960-07-28 00:00:00 TS 27.4000 -85.5000 30 hurdat_atl main 256 256 O_____________ hurdat_atl AL031960 27.4000 -85.5000 TD 30 -1 2 216
1960210N28275 1960 41 NA GM BRENDA 1960-07-28 03:00:00 TS 27.3625 -85.4874 main 256 252 P_____________ AL031960 27.3625 -85.4874 TD 30 -1 1 90
1960210N28275 1960 41 NA GM BRENDA 1960-07-28 06:00:00 TS 27.4000 -85.4000 30 hurdat_atl main 252 240 O_____________ hurdat_atl AL031960 27.4000 -85.4000 TD 30 -1 2 47
1960210N28275 1960 41 NA GM BRENDA 1960-07-28 09:00:00 TS 27.4850 -85.3425 main 240 234 P_____________ AL031960 27.4850 -85.3425 TD 32 -1 2 25
1960210N28275 1960 41 NA GM BRENDA 1960-07-28 12:00:00 TS 27.6000 -85.3000 35 hurdat_atl main 234 223 O_____________ hurdat_atl AL031960 27.6000 -85.3000 TS 35 0 2 0
1960210N28275 1960 41 NA GM BRENDA 1960-07-28 15:00:00 TS 27.6625 -85.3148 main 223 212 P_____________ AL031960 27.6625 -85.3148 TS 35 0 2 8
1960210N28275 1960 41 NA GM BRENDA 1960-07-28 18:00:00 TS 27.8000 -85.3000 35 hurdat_atl main 212 178 O_____________ hurdat_atl AL031960 27.8000 -85.3000 TS 35 0 4 4
1960210N28275 1960 41 NA GM BRENDA 1960-07-28 21:00:00 TS 28.0743 -85.2611 main 178 133 P_____________ AL031960 28.0743 -85.2611 TS 35 0 8 21
1960210N28275 1960 41 NA GM BRENDA 1960-07-29 00:00:00 TS 28.5000 -85.0000 35 hurdat_atl main 133 91 O_____________ hurdat_atl AL031960 28.5000 -85.0000 TS 35 0 12 40
1960210N28275 1960 41 NA GM BRENDA 1960-07-29 03:00:00 TS 29.0180 -84.3545 main 91 9 P_____________ AL031960 29.0180 -84.3545 TS 35 0 18 48
1960210N28275 1960 41 NA GM BRENDA 1960-07-29 06:00:00 TS 29.7000 -83.5000 35 hurdat_atl main 9 0 O_____________ hurdat_atl AL031960 29.7000 -83.5000 L TS 35 0 21 42
1960210N28275 1960 41 NA NA BRENDA 1960-07-29 09:00:00 TS 30.5916 -82.6951 main 0 0 P_____________ AL031960 30.5916 -82.6951 TS 45 0 23 39
1960210N28275 1960 41 NA NA BRENDA 1960-07-29 12:00:00 TS 31.5000 -81.8000 55 1000 hurdat_atl main 0 0 O_____________ hurdat_atl AL031960 31.5000 -81.8000 TS 55 1000 0 22 46
1960210N28275 1960 41 NA NA BRENDA 1960-07-29 15:00:00 TS 32.0903 -80.8636 main 0 0 P_____________ AL031960 32.0903 -80.8636 TS 57 996 0 22 54
1960210N28275 1960 41 NA NA BRENDA 1960-07-29 18:00:00 TS 32.8000 -79.7000 60 993 hurdat_atl main 9 0 O_____________ hurdat_atl AL031960 32.8000 -79.7000 TS 60 993 0 29 51
1960210N28275 1960 41 NA NA BRENDA 1960-07-29 21:00:00 TS 33.9000 -78.2000 60 993 hurdat_atl main 0 0 O_____________ hurdat_atl AL031960 33.9000 -78.2000 L TS 60 993 0 23 40
1960210N28275 1960 41 NA NA BRENDA 1960-07-30 00:00:00 TS 34.6000 -77.9000 55 994 hurdat_atl main 0 0 O_____________ hurdat_atl AL031960 34.6000 -77.9000 TS 55 994 0 20 22
1960210N28275 1960 41 NA NA BRENDA 1960-07-30 03:00:00 TS 35.7462 -77.2719 main 0 0 P_____________ AL031960 35.7462 -77.2719 TS 52 993 0 27 25
1960210N28275 1960 41 NA NA BRENDA 1960-07-30 06:00:00 TS 37.0000 -76.5000 50 993 hurdat_atl main 8 0 O_____________ hurdat_atl AL031960 37.0000 -76.5000 TS 50 993 0 24 27
1960210N28275 1960 41 NA NA BRENDA 1960-07-30 09:00:00 TS 37.8940 -75.9033 main 8 0 P_____________ AL031960 37.8940 -75.9033 TS 50 992 0 19 29
1960210N28275 1960 41 NA NA BRENDA 1960-07-30 12:00:00 TS 38.7000 -75.3000 50 992 hurdat_atl main 0 0 O_____________ hurdat_atl AL031960 38.7000 -75.3000 TS 50 992 0 19 31
1960210N28275 1960 41 NA NA BRENDA 1960-07-30 15:00:00 TS 39.5387 -74.6266 main 0 0 P_____________ AL031960 39.5387 -74.6266 TS 50 991 0 21 33
1960210N28275 1960 41 NA NA BRENDA 1960-07-30 18:00:00 TS 40.5000 -73.8000 50 991 hurdat_atl main 8 0 O_____________ hurdat_atl AL031960 40.5000 -73.8000 TS 50 991 0 26 35
1960210N28275 1960 41 NA NA BRENDA 1960-07-30 21:00:00 TS 41.6610 -72.7017 main 0 0 P_____________ AL031960 41.6610 -72.7017 TS 45 991 0 30 35
1960210N28275 1960 41 NA NA BRENDA 1960-07-31 00:00:00 TS 43.0000 -71.5000 40 991 hurdat_atl main 0 0 O_____________ hurdat_atl AL031960 43.0000 -71.5000 TS 40 991 0 32 33
1960210N28275 1960 41 NA NA BRENDA 1960-07-31 03:00:00 TS 44.3889 -70.2827 main 0 0 P_____________ AL031960 44.3889 -70.2827 TS 37 991 0 34 28
1960210N28275 1960 41 NA NA BRENDA 1960-07-31 06:00:00 ET 46.0000 -69.3000 35 992 hurdat_atl main 0 0 O_____________ hurdat_atl AL031960 46.0000 -69.3000 EX 35 992 -4 37 16
1960210N28275 1960 41 NA NA BRENDA 1960-07-31 09:00:00 ET 47.9234 -68.7997 main 0 0 P_____________ AL031960 47.9234 -68.7997 EX 35 991 -4 40 7
1960210N28275 1960 41 NA NA BRENDA 1960-07-31 12:00:00 ET 50.0000 -68.6000 35 990 hurdat_atl main 0 0 O_____________ hurdat_atl AL031960 50.0000 -68.6000 EX 35 990 -4 41 4
1960210N28275 1960 41 NA NA BRENDA 1960-07-31 15:00:00 ET 51.9997 -68.3567 main 0 0 P_____________ AL031960 51.9997 -68.3567 EX 35 988 -4 40 3
1960210N28275 1960 41 NA NA BRENDA 1960-07-31 18:00:00 ET 54.0000 -68.3000 35 986 hurdat_atl main 0 0 O_____________ hurdat_atl AL031960 54.0000 -68.3000 EX 35 986 -4 41 359
1960210N28275 1960 41 NA NA BRENDA 1960-07-31 21:00:00 ET 56.1122 -68.5225 main 0 0 P_____________ AL031960 56.1122 -68.5225 EX 37 981 -4 40 355
1960210N28275 1960 41 NA NA BRENDA 1960-08-01 00:00:00 ET 58.0000 -68.9000 40 977 hurdat_atl main 0 0 O_____________ hurdat_atl AL031960 58.0000 -68.9000 EX 40 977 -4 34 355
1960210N28275 1960 41 NA NA BRENDA 1960-08-01 03:00:00 ET 59.5106 -69.1007 main 30 12 P_____________ AL031960 59.5106 -69.1007 EX 42 976 -4 25 353
1960210N28275 1960 41 NA NA BRENDA 1960-08-01 06:00:00 ET 60.5000 -69.5000 45 976 hurdat_atl main 12 0 O_____________ hurdat_atl AL031960 60.5000 -69.5000 EX 45 976 -4 15 337
1960210N28275 1960 41 NA NA BRENDA 1960-08-01 09:00:00 ET 60.8977 -70.2910 main 0 0 P_____________ AL031960 60.8977 -70.2910 EX 45 976 -4 11 297
1960210N28275 1960 41 NA NA BRENDA 1960-08-01 12:00:00 ET 61.0000 -71.5000 45 976 hurdat_atl main 0 0 O_____________ hurdat_atl AL031960 61.0000 -71.5000 EX 45 976 -4 15 288
1960210N28275 1960 41 NA NA BRENDA 1960-08-01 15:00:00 ET 61.3664 -73.1955 main 0 0 P_____________ AL031960 61.3664 -73.1955 EX 42 978 -4 17 287
1960210N28275 1960 41 NA NA BRENDA 1960-08-01 18:00:00 ET 61.5000 -75.0000 40 980 hurdat_atl main 0 0 O_____________ hurdat_atl AL031960 61.5000 -75.0000 EX 40 980 -4 15 265
1960210N28275 1960 41 NA NA BRENDA 1960-08-01 21:00:00 ET 61.2220 -76.3630 main 0 0 P_____________ AL031960 61.2220 -76.3630 EX 37 981 -4 16 230
1960210N28275 1960 41 NA NA BRENDA 1960-08-02 00:00:00 ET 60.5000 -77.5000 35 982 hurdat_atl main 0 0 O_____________ hurdat_atl AL031960 60.5000 -77.5000 EX 35 982 -4 22 211
1960210N28275 1960 41 NA NA BRENDA 1960-08-02 03:00:00 ET 59.3253 -78.6643 main 40 28 P_____________ AL031960 59.3253 -78.6643 EX 35 982 -4 27 202
1960210N28275 1960 41 NA NA BRENDA 1960-08-02 06:00:00 ET 58.0000 -79.5000 35 983 hurdat_atl main 84 65 O_____________ hurdat_atl AL031960 58.0000 -79.5000 EX 35 983 -4 26 198
1960210N28275 1960 41 NA NA BRENDA 1960-08-02 09:00:00 ET 56.8439 -80.2006 main 58 12 P_____________ AL031960 56.8439 -80.2006 EX 35 983 -4 20 188
1960210N28275 1960 41 NA NA BRENDA 1960-08-02 12:00:00 ET 56.0000 -80.0000 35 983 hurdat_atl main 11 0 O_____________ hurdat_atl AL031960 56.0000 -80.0000 EX 35 983 -4 16 141
1960210N28275 1960 41 NA NA BRENDA 1960-08-02 15:00:00 ET 55.6024 -78.4049 main 50 0 P_____________ AL031960 55.6024 -78.4049 EX 32 983 -4 23 102
1960210N28275 1960 41 NA NA BRENDA 1960-08-02 18:00:00 ET 55.5000 -76.0000 30 984 hurdat_atl main 0 0 O_____________ hurdat_atl AL031960 55.5000 -76.0000 EX 30 984 -4 28 93
1960210N28275 1960 41 NA NA BRENDA 1960-08-02 21:00:00 ET 55.4548 -73.4296 main 0 0 P_____________ AL031960 55.4548 -73.4296 EX 30 984 -4 28 90
1960210N28275 1960 41 NA NA BRENDA 1960-08-03 00:00:00 ET 55.5000 -71.0000 30 984 hurdat_atl main 0 0 O_____________ hurdat_atl AL031960 55.5000 -71.0000 EX 30 984 -4 24 87
1960210N28275 1960 41 NA NA BRENDA 1960-08-03 03:00:00 ET 55.5729 -69.2024 main 0 0 P_____________ AL031960 55.5729 -69.2024 EX 30 984 -4 17 83
1960210N28275 1960 41 NA NA BRENDA 1960-08-03 06:00:00 ET 55.7000 -68.0000 30 984 hurdat_atl main 0 0 O_____________ hurdat_atl AL031960 55.7000 -68.0000 EX 30 984 -4 11 76
1960210N28275 1960 41 NA NA BRENDA 1960-08-03 09:00:00 ET 55.8316 -67.3485 main 0 0 P_____________ AL031960 55.8316 -67.3485 EX 30 984 -4 6 62
1960210N28275 1960 41 NA NA BRENDA 1960-08-03 12:00:00 ET 56.0000 -67.0000 30 984 hurdat_atl main 0 0 O_____________ hurdat_atl AL031960 56.0000 -67.0000 EX 30 984 -4 6 54
1960210N28275 1960 41 NA NA BRENDA 1960-08-03 15:00:00 ET 56.2004 -66.4261 main 0 0 P_____________ AL031960 56.2004 -66.4261 EX 30 984 -4 7 54
1960210N28275 1960 41 NA NA BRENDA 1960-08-03 18:00:00 ET 56.4000 -66.0000 30 985 hurdat_atl main 0 0 O_____________ hurdat_atl AL031960 56.4000 -66.0000 EX 30 985 -4 5 38
1960210N28275 1960 41 NA NA BRENDA 1960-08-03 21:00:00 ET 56.5572 -65.9239 main 0 0 P_____________ AL031960 56.5572 -65.9239 EX 30 985 -4 3 0
1960210N28275 1960 41 NA NA BRENDA 1960-08-04 00:00:00 ET 56.7000 -66.0000 30 986 hurdat_atl main 0 0 O_____________ hurdat_atl AL031960 56.7000 -66.0000 EX 30 986 -4 3 351
1960210N28275 1960 41 NA NA BRENDA 1960-08-04 03:00:00 ET 56.8575 -66.0000 main 0 0 P_____________ AL031960 56.8575 -66.0000 EX 30 986 -4 3 0
1960210N28275 1960 41 NA NA BRENDA 1960-08-04 06:00:00 ET 57.0000 -66.0000 30 986 hurdat_atl main 0 0 O_____________ hurdat_atl AL031960 57.0000 -66.0000 EX 30 986 -4 2 6
1960210N28275 1960 41 NA NA BRENDA 1960-08-04 09:00:00 ET 57.1000 -66.0000 main 0 0 P_____________ AL031960 57.1000 -66.0000 EX 30 986 -4 2 8
1960210N28275 1960 41 NA NA BRENDA 1960-08-04 12:00:00 ET 57.2000 -66.0000 30 987 hurdat_atl main 0 0 O_____________ hurdat_atl AL031960 57.2000 -66.0000 EX 30 987 -4 2 0
1960210N28275 1960 41 NA NA BRENDA 1960-08-04 15:00:00 ET 57.3275 -66.0000 main 0 0 P_____________ AL031960 57.3275 -66.0000 EX 27 988 -4 3 0
1960210N28275 1960 41 NA NA BRENDA 1960-08-04 18:00:00 ET 57.5000 -66.0000 25 989 hurdat_atl main 0 0 O_____________ hurdat_atl AL031960 57.5000 -66.0000 EX 25 989 -4 4 12
1960210N28275 1960 41 NA NA BRENDA 1960-08-04 21:00:00 ET 57.6963 -65.8555 main 0 0 P_____________ AL031960 57.6963 -65.8555 EX 25 990 -4 5 2
1960210N28275 1960 41 NA NA BRENDA 1960-08-05 00:00:00 ET 58.0000 -66.0000 25 992 hurdat_atl main 0 0 O_____________ hurdat_atl AL031960 58.0000 -66.0000 EX 25 992 -4 9 328
1960210N28275 1960 41 NA NA BRENDA 1960-08-05 03:00:00 ET 58.5006 -66.8059 main 11 11 P_____________ AL031960 58.5006 -66.8059 EX 25 993 -4 14 314
1960210N28275 1960 41 NA NA BRENDA 1960-08-05 06:00:00 ET 59.0000 -68.0000 25 995 hurdat_atl main 27 11 O_____________ hurdat_atl AL031960 59.0000 -68.0000 EX 25 995 -4 15 301
1960210N28275 1960 41 NA NA BRENDA 1960-08-05 09:00:00 ET 59.3053 -69.3630 main 11 0 P_____________ AL031960 59.3053 -69.3630 EX 22 996 -4 14 291
1960210N28275 1960 41 NA NA BRENDA 1960-08-05 12:00:00 ET 59.5000 -70.5000 20 998 hurdat_atl main 0 0 O_____________ hurdat_atl AL031960 59.5000 -70.5000 EX 20 998 -4 9 298
1960210N28275 1960 41 NA NA BRENDA 1960-08-05 15:00:00 ET 59.7076 -70.8649 main 0 0 P_____________ AL031960 59.7076 -70.8649 EX 20 999 -4 4 320
1960210N28275 1960 41 NA NA BRENDA 1960-08-05 18:00:00 ET 59.8000 -71.0000 20 1000 hurdat_atl main 0 0 O_____________ hurdat_atl AL031960 59.8000 -71.0000 EX 20 1000 -4 3 270
1960210N28275 1960 41 NA NA BRENDA 1960-08-05 21:00:00 ET 59.7096 -71.4249 main 0 0 P_____________ AL031960 59.7096 -71.4249 EX 20 1001 -4 6 239
1960210N28275 1960 41 NA NA BRENDA 1960-08-06 00:00:00 ET 59.5000 -72.0000 20 1003 hurdat_atl main 0 0 O_____________ hurdat_atl AL031960 59.5000 -72.0000 EX 20 1003 -4 9 241
1960210N28275 1960 41 NA NA BRENDA 1960-08-06 03:00:00 ET 59.2888 -72.9436 main 0 0 P_____________ AL031960 59.2888 -72.9436 EX 20 1004 -4 9 237
1960210N28275 1960 41 NA NA BRENDA 1960-08-06 06:00:00 ET 59.0000 -73.5000 20 1005 hurdat_atl main 0 0 O_____________ hurdat_atl AL031960 59.0000 -73.5000 EX 20 1005 -4 7 186
1960210N28275 1960 41 NA NA BRENDA 1960-08-06 09:00:00 ET 58.5902 -73.0823 main 0 0 P_____________ AL031960 58.5902 -73.0823 EX 20 1005 -4 11 136
1960210N28275 1960 41 NA NA BRENDA 1960-08-06 12:00:00 ET 58.2000 -72.0000 20 1006 hurdat_atl main 0 0 O_____________ hurdat_atl AL031960 58.2000 -72.0000 EX 20 1006 -4 14 116
1960210N28275 1960 41 NA NA BRENDA 1960-08-06 15:00:00 ET 57.9640 -70.6135 main 0 0 P_____________ AL031960 57.9640 -70.6135 EX 20 1006 -4 16 104
1960210N28275 1960 41 NA NA BRENDA 1960-08-06 18:00:00 ET 57.8000 -69.0000 20 1006 hurdat_atl main 0 0 O_____________ hurdat_atl AL031960 57.8000 -69.0000 EX 20 1006 -4 17 100
1960210N28275 1960 41 NA NA BRENDA 1960-08-06 21:00:00 ET 57.6581 -67.4278 main 0 0 P_____________ AL031960 57.6581 -67.4278 EX 20 1006 -4 16 101
1960210N28275 1960 41 NA NA BRENDA 1960-08-07 00:00:00 ET 57.5000 -66.0000 20 1007 hurdat_atl main 0 0 O_____________ hurdat_atl AL031960 57.5000 -66.0000 EX 20 1007 -4 14 106
1960210N28275 1960 41 NA NA BRENDA 1960-08-07 03:00:00 ET 57.2846 -64.9281 main 0 0 P_____________ AL031960 57.2846 -64.9281 EX 20 1007 -4 12 115
1960210N28275 1960 41 NA NA BRENDA 1960-08-07 06:00:00 ET 57.0000 -64.0000 20 1007 hurdat_atl main 0 0 O_____________ hurdat_atl AL031960 57.0000 -64.0000 EX 20 1007 -4 13 124
1960210N28275 1960 41 NA NA BRENDA 1960-08-07 09:00:00 ET 56.5767 -62.9968 main 0 0 P_____________ AL031960 56.5767 -62.9968 EX 20 1006 -4 14 126
1960210N28275 1960 41 NA NA BRENDA 1960-08-07 12:00:00 ET 56.2000 -62.0000 20 1006 hurdat_atl main 0 0 O_____________ hurdat_atl AL031960 56.2000 -62.0000 EX 20 1006 -4 12 116
1960210N28275 1960 41 NA NA BRENDA 1960-08-07 15:00:00 ET 56.0341 -61.0031 main 12 12 P_____________ AL031960 56.0341 -61.0031 EX 20 1005 -4 11 100
1960210N28275 1960 41 NA NA BRENDA 1960-08-07 18:00:00 ET 56.0000 -60.0000 20 1005 hurdat_atl main 41 O_____________ hurdat_atl AL031960 56.0000 -60.0000 EX 20 1005 -4 11 93

About IBTrACS Database

This database is a web-friendly format of International Best Track Archive for Climate Stewardship (IBTrACS), a global best track data archive curated by NOAA dating back to 1842.

Updated: 2021-10-27